sensor_id;sensor_type;location;lat;lon;timestamp;pressure;altitude;pressure_sealevel;temperature;humidity
35121;BME280;21297;52.008;4.576;2023-05-25T00:00:26;49036.34;;;-143.47;98.09
35121;BME280;21297;52.008;4.576;2023-05-25T00:03:12;48997.03;;;-143.47;99.63
35121;BME280;21297;52.008;4.576;2023-05-25T00:05:59;49022.59;;;-143.47;100.00
35121;BME280;21297;52.008;4.576;2023-05-25T00:08:47;49010.78;;;-143.47;99.96
35121;BME280;21297;52.008;4.576;2023-05-25T00:11:34;49040.28;;;-143.47;100.00
35121;BME280;21297;52.008;4.576;2023-05-25T00:14:20;49004.88;;;-143.47;100.00
35121;BME280;21297;52.008;4.576;2023-05-25T00:17:05;49002.91;;;-143.47;100.00
35121;BME280;21297;52.008;4.576;2023-05-25T00:19:54;48981.28;;;-143.47;100.00
35121;BME280;21297;52.008;4.576;2023-05-25T00:22:42;48959.66;;;-143.47;100.00
35121;BME280;21297;52.008;4.576;2023-05-25T00:25:29;48997.03;;;-143.47;100.00
35121;BME280;21297;52.008;4.576;2023-05-25T00:28:15;49010.78;;;-143.47;100.00
35121;BME280;21297;52.008;4.576;2023-05-25T00:31:00;49012.75;;;-143.47;100.00
35121;BME280;21297;52.008;4.576;2023-05-25T00:33:46;49040.28;;;-143.47;100.00
35121;BME280;21297;52.008;4.576;2023-05-25T00:36:32;49008.81;;;-143.47;100.00
35121;BME280;21297;52.008;4.576;2023-05-25T00:39:18;49010.78;;;-143.47;100.00
35121;BME280;21297;52.008;4.576;2023-05-25T00:42:06;49006.84;;;-143.47;100.00
35121;BME280;21297;52.008;4.576;2023-05-25T00:44:51;49018.66;;;-143.47;100.00
35121;BME280;21297;52.008;4.576;2023-05-25T00:47:38;49042.25;;;-143.47;100.00
35121;BME280;21297;52.008;4.576;2023-05-25T00:50:36;49079.63;;;-143.47;100.00
35121;BME280;21297;52.008;4.576;2023-05-25T00:53:22;49097.31;;;-143.47;100.00
35121;BME280;21297;52.008;4.576;2023-05-25T00:56:17;49122.88;;;-143.47;100.00
35121;BME280;21297;52.008;4.576;2023-05-25T00:59:08;49126.81;;;-143.47;100.00
35121;BME280;21297;52.008;4.576;2023-05-25T01:01:58;49146.47;;;-143.47;100.00
35121;BME280;21297;52.008;4.576;2023-05-25T01:04:50;49122.88;;;-143.47;100.00
35121;BME280;21297;52.008;4.576;2023-05-25T01:07:38;49185.81;;;-143.47;100.00
35121;BME280;21297;52.008;4.576;2023-05-25T01:10:30;49197.59;;;-143.47;100.00
35121;BME280;21297;52.008;4.576;2023-05-25T01:13:19;49185.81;;;-143.47;99.04
35121;BME280;21297;52.008;4.576;2023-05-25T01:16:05;49162.19;;;-143.47;100.00
35121;BME280;21297;52.008;4.576;2023-05-25T01:18:51;49193.66;;;-143.47;100.00
35121;BME280;21297;52.008;4.576;2023-05-25T01:21:50;49136.63;;;-143.47;100.00
35121;BME280;21297;52.008;4.576;2023-05-25T01:24:48;49124.84;;;-143.47;100.00
35121;BME280;21297;52.008;4.576;2023-05-25T01:27:43;49115.00;;;-143.47;100.00
35121;BME280;21297;52.008;4.576;2023-05-25T01:30:32;49079.63;;;-143.47;100.00
35121;BME280;21297;52.008;4.576;2023-05-25T01:33:19;49079.63;;;-143.47;100.00
35121;BME280;21297;52.008;4.576;2023-05-25T01:36:06;49059.94;;;-143.47;100.00
35121;BME280;21297;52.008;4.576;2023-05-25T01:38:51;49022.59;;;-143.47;100.00
35121;BME280;21297;52.008;4.576;2023-05-25T01:41:37;49077.66;;;-143.47;100.00
35121;BME280;21297;52.008;4.576;2023-05-25T01:44:23;49071.75;;;-143.47;100.00
35121;BME280;21297;52.008;4.576;2023-05-25T01:47:20;49067.81;;;-143.47;100.00
35121;BME280;21297;52.008;4.576;2023-05-25T01:50:17;49044.22;;;-143.47;100.00
35121;BME280;21297;52.008;4.576;2023-05-25T01:53:11;49040.28;;;-143.47;100.00
35121;BME280;21297;52.008;4.576;2023-05-25T01:56:03;49008.81;;;-143.47;100.00
35121;BME280;21297;52.008;4.576;2023-05-25T01:58:50;48987.19;;;-143.47;100.00
35121;BME280;21297;52.008;4.576;2023-05-25T02:01:36;48985.22;;;-143.47;100.00
35121;BME280;21297;52.008;4.576;2023-05-25T02:04:22;49002.91;;;-143.47;100.00
35121;BME280;21297;52.008;4.576;2023-05-25T02:07:08;49000.94;;;-143.47;100.00
35121;BME280;21297;52.008;4.576;2023-05-25T02:09:55;48989.16;;;-143.47;100.00
35121;BME280;21297;52.008;4.576;2023-05-25T02:12:40;49006.84;;;-143.47;100.00
35121;BME280;21297;52.008;4.576;2023-05-25T02:15:31;48973.41;;;-143.47;100.00
35121;BME280;21297;52.008;4.576;2023-05-25T02:18:17;48969.50;;;-143.47;100.00
35121;BME280;21297;52.008;4.576;2023-05-25T02:21:02;48998.97;;;-143.47;100.00
35121;BME280;21297;52.008;4.576;2023-05-25T02:23:48;48977.34;;;-143.47;100.00
35121;BME280;21297;52.008;4.576;2023-05-25T02:26:37;48981.28;;;-143.47;100.00
35121;BME280;21297;52.008;4.576;2023-05-25T02:29:23;49016.69;;;-143.47;100.00
35121;BME280;21297;52.008;4.576;2023-05-25T02:32:09;48983.25;;;-143.47;100.00
35121;BME280;21297;52.008;4.576;2023-05-25T02:34:54;49063.88;;;-143.47;100.00
35121;BME280;21297;52.008;4.576;2023-05-25T02:37:40;49046.19;;;-143.47;100.00
35121;BME280;21297;52.008;4.576;2023-05-25T02:40:26;49048.16;;;-143.47;100.00
35121;BME280;21297;52.008;4.576;2023-05-25T02:43:11;49042.25;;;-143.47;100.00
35121;BME280;21297;52.008;4.576;2023-05-25T02:45:57;49095.34;;;-143.47;100.00
35121;BME280;21297;52.008;4.576;2023-05-25T02:48:43;49034.38;;;-143.47;100.00
35121;BME280;21297;52.008;4.576;2023-05-25T02:51:28;49083.53;;;-143.47;100.00
35121;BME280;21297;52.008;4.576;2023-05-25T02:54:14;49081.56;;;-143.47;100.00
35121;BME280;21297;52.008;4.576;2023-05-25T02:56:59;49048.16;;;-143.47;100.00
35121;BME280;21297;52.008;4.576;2023-05-25T02:59:48;49083.53;;;-143.47;100.00
35121;BME280;21297;52.008;4.576;2023-05-25T03:02:33;49067.81;;;-143.47;100.00
35121;BME280;21297;52.008;4.576;2023-05-25T03:05:19;49075.69;;;-143.47;100.00
35121;BME280;21297;52.008;4.576;2023-05-25T03:08:05;49075.69;;;-143.47;100.00
35121;BME280;21297;52.008;4.576;2023-05-25T03:10:50;49042.25;;;-143.47;100.00
35121;BME280;21297;52.008;4.576;2023-05-25T03:13:36;49052.09;;;-143.47;100.00
35121;BME280;21297;52.008;4.576;2023-05-25T03:16:22;49126.81;;;-143.47;100.00
35121;BME280;21297;52.008;4.576;2023-05-25T03:19:08;49056.00;;;-143.47;100.00
35121;BME280;21297;52.008;4.576;2023-05-25T03:21:55;49103.22;;;-143.47;100.00
35121;BME280;21297;52.008;4.576;2023-05-25T03:24:40;49087.47;;;-143.47;100.00
35121;BME280;21297;52.008;4.576;2023-05-25T03:27:26;49113.03;;;-143.47;100.00
35121;BME280;21297;52.008;4.576;2023-05-25T03:30:12;49095.34;;;-143.47;100.00
35121;BME280;21297;52.008;4.576;2023-05-25T03:32:58;49118.94;;;-143.47;100.00
35121;BME280;21297;52.008;4.576;2023-05-25T03:35:43;49095.34;;;-143.47;100.00
35121;BME280;21297;52.008;4.576;2023-05-25T03:38:29;49105.19;;;-143.47;100.00
35121;BME280;21297;52.008;4.576;2023-05-25T03:41:15;49083.53;;;-143.47;100.00
35121;BME280;21297;52.008;4.576;2023-05-25T03:44:00;49040.28;;;-143.47;100.00
35121;BME280;21297;52.008;4.576;2023-05-25T03:46:46;49050.13;;;-143.47;100.00
35121;BME280;21297;52.008;4.576;2023-05-25T03:49:32;49046.19;;;-143.47;100.00
35121;BME280;21297;52.008;4.576;2023-05-25T03:52:17;49056.00;;;-143.47;100.00
35121;BME280;21297;52.008;4.576;2023-05-25T03:55:03;49052.09;;;-143.47;100.00
35121;BME280;21297;52.008;4.576;2023-05-25T03:57:49;49069.78;;;-143.47;100.00
35121;BME280;21297;52.008;4.576;2023-05-25T04:00:35;49052.09;;;-143.47;100.00
35121;BME280;21297;52.008;4.576;2023-05-25T04:03:21;49040.28;;;-143.47;100.00
35121;BME280;21297;52.008;4.576;2023-05-25T04:06:07;49054.03;;;-143.47;100.00
35121;BME280;21297;52.008;4.576;2023-05-25T04:08:53;48973.41;;;-143.47;100.00
35121;BME280;21297;52.008;4.576;2023-05-25T04:11:39;49006.84;;;-143.47;100.00
35121;BME280;21297;52.008;4.576;2023-05-25T04:14:25;48971.47;;;-143.47;100.00
35121;BME280;21297;52.008;4.576;2023-05-25T04:17:11;49012.75;;;-143.47;100.00
35121;BME280;21297;52.008;4.576;2023-05-25T04:19:56;49038.31;;;-143.47;100.00
35121;BME280;21297;52.008;4.576;2023-05-25T04:22:42;49075.69;;;-143.47;100.00
35121;BME280;21297;52.008;4.576;2023-05-25T04:25:29;49052.09;;;-143.47;100.00
35121;BME280;21297;52.008;4.576;2023-05-25T04:28:16;49022.59;;;-143.47;100.00
35121;BME280;21297;52.008;4.576;2023-05-25T04:31:02;49046.19;;;-143.47;100.00
35121;BME280;21297;52.008;4.576;2023-05-25T04:33:49;49067.81;;;-143.47;100.00
35121;BME280;21297;52.008;4.576;2023-05-25T04:36:35;49071.75;;;-143.47;100.00
35121;BME280;21297;52.008;4.576;2023-05-25T04:39:23;49063.88;;;-143.47;100.00
35121;BME280;21297;52.008;4.576;2023-05-25T04:42:08;49091.41;;;-143.47;100.00
35121;BME280;21297;52.008;4.576;2023-05-25T04:44:54;49101.25;;;-143.47;100.00
35121;BME280;21297;52.008;4.576;2023-05-25T04:47:43;49075.69;;;-143.47;100.00
35121;BME280;21297;52.008;4.576;2023-05-25T04:50:29;49140.56;;;-143.47;100.00
35121;BME280;21297;52.008;4.576;2023-05-25T04:53:15;49126.81;;;-143.47;100.00
35121;BME280;21297;52.008;4.576;2023-05-25T04:56:01;49115.00;;;-143.47;100.00
35121;BME280;21297;52.008;4.576;2023-05-25T04:58:47;49130.75;;;-143.47;100.00
35121;BME280;21297;52.008;4.576;2023-05-25T05:01:32;49140.56;;;-143.47;100.00
35121;BME280;21297;52.008;4.576;2023-05-25T05:04:28;49144.50;;;-143.47;100.00
35121;BME280;21297;52.008;4.576;2023-05-25T05:07:14;49195.63;;;-143.47;100.00
35121;BME280;21297;52.008;4.576;2023-05-25T05:10:00;49187.78;;;-143.47;100.00
35121;BME280;21297;52.008;4.576;2023-05-25T05:12:46;49217.28;;;-143.47;100.00
35121;BME280;21297;52.008;4.576;2023-05-25T05:15:31;49209.41;;;-143.47;100.00
35121;BME280;21297;52.008;4.576;2023-05-25T05:18:17;49185.81;;;-143.47;100.00
35121;BME280;21297;52.008;4.576;2023-05-25T05:21:03;49260.53;;;-143.47;100.00
35121;BME280;21297;52.008;4.576;2023-05-25T05:23:48;49266.44;;;-143.47;100.00
35121;BME280;21297;52.008;4.576;2023-05-25T05:26:34;49246.75;;;-143.47;100.00
35121;BME280;21297;52.008;4.576;2023-05-25T05:29:00;49284.13;;;-143.47;100.00
35121;BME280;21297;52.008;4.576;2023-05-25T05:31:25;49307.72;;;-143.47;100.00
35121;BME280;21297;52.008;4.576;2023-05-25T05:33:51;49311.66;;;-143.47;100.00
35121;BME280;21297;52.008;4.576;2023-05-25T05:36:17;49372.63;;;-143.47;99.39
35121;BME280;21297;52.008;4.576;2023-05-25T05:38:42;49402.13;;;-143.47;93.25
35121;BME280;21297;52.008;4.576;2023-05-25T05:41:10;49370.66;;;-143.47;96.77
35121;BME280;21297;52.008;4.576;2023-05-25T05:43:41;49413.94;;;-143.47;96.33
35121;BME280;21297;52.008;4.576;2023-05-25T05:46:11;49410.00;;;-143.47;93.87
35121;BME280;21297;52.008;4.576;2023-05-25T05:48:37;49364.75;;;-143.47;91.54
35121;BME280;21297;52.008;4.576;2023-05-25T05:51:04;49388.38;;;-143.47;90.82
35121;BME280;21297;52.008;4.576;2023-05-25T05:53:32;49354.94;;;-143.47;90.80
35121;BME280;21297;52.008;4.576;2023-05-25T05:55:59;49413.94;;;-143.47;91.43
35121;BME280;21297;52.008;4.576;2023-05-25T05:58:25;49400.16;;;-143.47;89.10
35121;BME280;21297;52.008;4.576;2023-05-25T06:00:51;49433.59;;;-143.47;85.70
35121;BME280;21297;52.008;4.576;2023-05-25T06:03:17;49398.19;;;-143.47;85.02
35121;BME280;21297;52.008;4.576;2023-05-25T06:05:43;49423.75;;;-143.47;84.26
35121;BME280;21297;52.008;4.576;2023-05-25T06:08:08;49441.47;;;-143.47;83.44
35121;BME280;21297;52.008;4.576;2023-05-25T06:10:34;49378.53;;;-143.47;82.01
35121;BME280;21297;52.008;4.576;2023-05-25T06:13:00;49358.88;;;-143.47;86.00
35121;BME280;21297;52.008;4.576;2023-05-25T06:15:25;49410.00;;;-143.47;84.38
35121;BME280;21297;52.008;4.576;2023-05-25T06:17:51;49421.78;;;-143.47;86.24
35121;BME280;21297;52.008;4.576;2023-05-25T06:20:16;49400.16;;;-143.47;83.44
35121;BME280;21297;52.008;4.576;2023-05-25T06:22:41;49443.44;;;-143.47;85.01
35121;BME280;21297;52.008;4.576;2023-05-25T06:25:07;49469.00;;;-143.47;84.24
35121;BME280;21297;52.008;4.576;2023-05-25T06:27:45;49453.25;;;-143.47;81.76
35121;BME280;21297;52.008;4.576;2023-05-25T06:30:10;49451.28;;;-143.47;81.93
35121;BME280;21297;52.008;4.576;2023-05-25T06:32:36;49439.50;;;-143.47;80.47
35121;BME280;21297;52.008;4.576;2023-05-25T06:35:04;49512.25;;;-143.47;80.20
35121;BME280;21297;52.008;4.576;2023-05-25T06:37:31;49510.28;;;-143.47;80.15
35121;BME280;21297;52.008;4.576;2023-05-25T06:40:00;49514.22;;;-143.47;79.51
35121;BME280;21297;52.008;4.576;2023-05-25T06:42:26;49555.53;;;-143.47;77.43
35121;BME280;21297;52.008;4.576;2023-05-25T06:44:52;49500.47;;;-143.47;77.76
35121;BME280;21297;52.008;4.576;2023-05-25T06:47:17;49545.69;;;-143.47;76.60
35121;BME280;21297;52.008;4.576;2023-05-25T06:49:42;49612.56;;;-143.47;76.50
35121;BME280;21297;52.008;4.576;2023-05-25T06:52:07;49653.88;;;-143.47;76.07
35121;BME280;21297;52.008;4.576;2023-05-25T06:54:33;49626.34;;;-143.47;76.18
35121;BME280;21297;52.008;4.576;2023-05-25T06:56:58;49647.97;;;-143.47;74.59
35121;BME280;21297;52.008;4.576;2023-05-25T06:59:23;49636.16;;;-143.47;74.52
35121;BME280;21297;52.008;4.576;2023-05-25T07:02:07;49638.13;;;-143.47;74.35
35121;BME280;21297;52.008;4.576;2023-05-25T07:04:53;49651.91;;;-143.47;75.62
35121;BME280;21297;52.008;4.576;2023-05-25T07:07:39;49646.00;;;-143.47;73.80
35121;BME280;21297;52.008;4.576;2023-05-25T07:10:25;49541.75;;;-143.47;74.61
35121;BME280;21297;52.008;4.576;2023-05-25T07:13:11;49518.16;;;-143.47;77.15
35121;BME280;21297;52.008;4.576;2023-05-25T07:15:56;49474.91;;;-143.47;78.06
35121;BME280;21297;52.008;4.576;2023-05-25T07:18:42;49496.53;;;-143.47;77.35
35121;BME280;21297;52.008;4.576;2023-05-25T07:21:30;49492.59;;;-143.47;77.58
35121;BME280;21297;52.008;4.576;2023-05-25T07:24:17;49547.66;;;-143.47;76.85
35121;BME280;21297;52.008;4.576;2023-05-25T07:27:03;49547.66;;;-143.47;76.81
35121;BME280;21297;52.008;4.576;2023-05-25T07:29:49;49577.16;;;-143.47;74.13
35121;BME280;21297;52.008;4.576;2023-05-25T07:32:34;49547.66;;;-143.47;76.81
35121;BME280;21297;52.008;4.576;2023-05-25T07:35:20;49590.94;;;-143.47;77.01
35121;BME280;21297;52.008;4.576;2023-05-25T07:38:06;49606.66;;;-143.47;73.00
35121;BME280;21297;52.008;4.576;2023-05-25T07:40:51;49663.69;;;-143.47;72.65
35121;BME280;21297;52.008;4.576;2023-05-25T07:43:37;49640.09;;;-143.47;72.76
35121;BME280;21297;52.008;4.576;2023-05-25T07:46:23;49665.66;;;-143.47;71.25
35121;BME280;21297;52.008;4.576;2023-05-25T07:49:10;49701.06;;;-143.47;71.90
35121;BME280;21297;52.008;4.576;2023-05-25T07:52:00;49642.06;;;-143.47;73.02
35121;BME280;21297;52.008;4.576;2023-05-25T07:54:47;49636.16;;;-143.47;72.14
35121;BME280;21297;52.008;4.576;2023-05-25T07:57:34;49638.13;;;-143.47;71.13
35121;BME280;21297;52.008;4.576;2023-05-25T08:00:21;49748.28;;;-143.47;69.17
35121;BME280;21297;52.008;4.576;2023-05-25T08:03:08;49771.88;;;-143.47;68.57
35121;BME280;21297;52.008;4.576;2023-05-25T08:05:54;49716.81;;;-143.47;68.71
35121;BME280;21297;52.008;4.576;2023-05-25T08:08:39;49750.25;;;-143.47;69.46
35121;BME280;21297;52.008;4.576;2023-05-25T08:11:26;49765.97;;;-143.47;67.33
35121;BME280;21297;52.008;4.576;2023-05-25T08:14:12;49691.25;;;-143.47;70.72
35121;BME280;21297;52.008;4.576;2023-05-25T08:16:57;49687.31;;;-143.47;69.75
35121;BME280;21297;52.008;4.576;2023-05-25T08:19:43;49604.69;;;-143.47;69.82
35121;BME280;21297;52.008;4.576;2023-05-25T08:22:30;49693.19;;;-143.47;68.78
35121;BME280;21297;52.008;4.576;2023-05-25T08:25:16;49685.34;;;-143.47;68.97
35121;BME280;21297;52.008;4.576;2023-05-25T08:28:01;49626.34;;;-143.47;69.37
35121;BME280;21297;52.008;4.576;2023-05-25T08:30:47;49606.66;;;-143.47;69.13
35121;BME280;21297;52.008;4.576;2023-05-25T08:33:33;49628.31;;;-143.47;69.78
35121;BME280;21297;52.008;4.576;2023-05-25T08:36:19;49642.06;;;-143.47;68.94
35121;BME280;21297;52.008;4.576;2023-05-25T08:39:04;49636.16;;;-143.47;70.19
35121;BME280;21297;52.008;4.576;2023-05-25T08:41:52;49685.34;;;-143.47;69.63
35121;BME280;21297;52.008;4.576;2023-05-25T08:44:38;49630.25;;;-143.47;68.69
35121;BME280;21297;52.008;4.576;2023-05-25T08:47:26;49710.91;;;-143.47;67.73
35121;BME280;21297;52.008;4.576;2023-05-25T08:50:15;49760.06;;;-143.47;67.25
35121;BME280;21297;52.008;4.576;2023-05-25T08:53:02;49775.81;;;-143.47;66.25
35121;BME280;21297;52.008;4.576;2023-05-25T08:55:53;49689.28;;;-143.47;66.43
35121;BME280;21297;52.008;4.576;2023-05-25T08:58:43;49701.06;;;-143.47;66.49
35121;BME280;21297;52.008;4.576;2023-05-25T09:01:32;49687.31;;;-143.47;67.26
35121;BME280;21297;52.008;4.576;2023-05-25T09:04:21;49665.66;;;-143.47;67.36
35121;BME280;21297;52.008;4.576;2023-05-25T09:07:07;49742.38;;;-143.47;66.71
35121;BME280;21297;52.008;4.576;2023-05-25T09:09:54;49697.13;;;-143.47;68.03
35121;BME280;21297;52.008;4.576;2023-05-25T09:12:41;49762.03;;;-143.47;67.25
35121;BME280;21297;52.008;4.576;2023-05-25T09:15:27;49685.34;;;-143.47;67.63
35121;BME280;21297;52.008;4.576;2023-05-25T09:18:13;49724.66;;;-143.47;68.10
35121;BME280;21297;52.008;4.576;2023-05-25T09:20:59;49706.97;;;-143.47;67.16
35121;BME280;21297;52.008;4.576;2023-05-25T09:23:46;49756.13;;;-143.47;67.46
35121;BME280;21297;52.008;4.576;2023-05-25T09:26:33;49742.38;;;-143.47;67.04
35121;BME280;21297;52.008;4.576;2023-05-25T09:29:19;49685.34;;;-143.47;66.20
35121;BME280;21297;52.008;4.576;2023-05-25T09:32:07;49760.06;;;-143.47;66.26
35121;BME280;21297;52.008;4.576;2023-05-25T09:34:55;49846.63;;;-143.47;65.80
35121;BME280;21297;52.008;4.576;2023-05-25T09:37:52;49805.31;;;-143.47;63.34
35121;BME280;21297;52.008;4.576;2023-05-25T09:40:39;49767.94;;;-143.47;62.29
35121;BME280;21297;52.008;4.576;2023-05-25T09:43:25;49787.63;;;-143.47;62.58
35121;BME280;21297;52.008;4.576;2023-05-25T09:46:11;49787.63;;;-143.47;61.51
35121;BME280;21297;52.008;4.576;2023-05-25T09:48:58;49836.78;;;-143.47;61.46
35121;BME280;21297;52.008;4.576;2023-05-25T09:51:44;49882.03;;;-143.47;59.87
35121;BME280;21297;52.008;4.576;2023-05-25T09:54:30;50025.59;;;-143.47;58.92
35121;BME280;21297;52.008;4.576;2023-05-25T09:57:17;49941.03;;;-143.47;57.28
35121;BME280;21297;52.008;4.576;2023-05-25T10:00:05;49854.47;;;-143.47;59.36
35121;BME280;21297;52.008;4.576;2023-05-25T10:02:51;49937.09;;;-143.47;58.66
35121;BME280;21297;52.008;4.576;2023-05-25T10:05:37;49893.81;;;-143.47;58.87
35121;BME280;21297;52.008;4.576;2023-05-25T10:08:23;49948.91;;;-143.47;57.98
35121;BME280;21297;52.008;4.576;2023-05-25T10:11:12;49958.72;;;-143.47;56.32
35121;BME280;21297;52.008;4.576;2023-05-25T10:13:59;49960.69;;;-143.47;55.29
35121;BME280;21297;52.008;4.576;2023-05-25T10:16:54;49846.63;;;-143.47;52.57
35121;BME280;21297;52.008;4.576;2023-05-25T10:19:57;49897.75;;;-143.47;51.58
35121;BME280;21297;52.008;4.576;2023-05-25T10:22:59;49933.16;;;-143.47;51.38
35121;BME280;21297;52.008;4.576;2023-05-25T10:25:50;49994.13;;;-143.47;52.38
35121;BME280;21297;52.008;4.576;2023-05-25T10:28:41;49996.09;;;-143.47;53.67
35121;BME280;21297;52.008;4.576;2023-05-25T10:31:30;49929.22;;;-143.47;53.65
35121;BME280;21297;52.008;4.576;2023-05-25T10:34:19;49840.72;;;-143.47;54.75
35121;BME280;21297;52.008;4.576;2023-05-25T10:37:05;49905.63;;;-143.47;56.28
35121;BME280;21297;52.008;4.576;2023-05-25T10:39:52;49850.56;;;-143.47;57.42
35121;BME280;21297;52.008;4.576;2023-05-25T10:42:40;49878.09;;;-143.47;57.06
35121;BME280;21297;52.008;4.576;2023-05-25T10:45:26;49789.56;;;-143.47;58.74
35121;BME280;21297;52.008;4.576;2023-05-25T10:48:13;49866.28;;;-143.47;59.14
35121;BME280;21297;52.008;4.576;2023-05-25T10:50:59;49815.16;;;-143.47;59.70
35121;BME280;21297;52.008;4.576;2023-05-25T10:53:47;49880.06;;;-143.47;59.07
35121;BME280;21297;52.008;4.576;2023-05-25T11:00:03;49917.44;;;-143.47;58.81
35121;BME280;21297;52.008;4.576;2023-05-25T11:02:52;49876.13;;;-143.47;60.83
35121;BME280;21297;52.008;4.576;2023-05-25T11:05:39;49901.69;;;-143.47;59.55
35121;BME280;21297;52.008;4.576;2023-05-25T11:14:35;50049.22;;;-143.47;57.56
35121;BME280;21297;52.008;4.576;2023-05-25T11:17:26;49984.31;;;-143.47;57.95
35121;BME280;21297;52.008;4.576;2023-05-25T11:20:21;49889.88;;;-143.47;58.72
35121;BME280;21297;52.008;4.576;2023-05-25T11:23:23;49889.88;;;-143.47;58.91
35121;BME280;21297;52.008;4.576;2023-05-25T11:26:19;49882.03;;;-143.47;58.64
35121;BME280;21297;52.008;4.576;2023-05-25T11:29:14;49911.53;;;-143.47;59.82
35121;BME280;21297;52.008;4.576;2023-05-25T11:32:00;49964.63;;;-143.47;59.97
35121;BME280;21297;52.008;4.576;2023-05-25T11:34:47;49935.13;;;-143.47;59.57
35121;BME280;21297;52.008;4.576;2023-05-25T11:37:33;49826.94;;;-143.47;60.77
35121;BME280;21297;52.008;4.576;2023-05-25T11:40:21;49854.47;;;-143.47;60.57
35121;BME280;21297;52.008;4.576;2023-05-25T11:43:07;49819.09;;;-143.47;59.90
35121;BME280;21297;52.008;4.576;2023-05-25T11:45:54;49838.75;;;-143.47;60.00
35121;BME280;21297;52.008;4.576;2023-05-25T11:48:46;49799.41;;;-143.47;61.54
35121;BME280;21297;52.008;4.576;2023-05-25T11:51:34;49887.91;;;-143.47;59.71
35121;BME280;21297;52.008;4.576;2023-05-25T11:54:26;49874.16;;;-143.47;58.23
35121;BME280;21297;52.008;4.576;2023-05-25T11:57:17;49939.06;;;-143.47;59.61
35121;BME280;21297;52.008;4.576;2023-05-25T12:00:03;49868.25;;;-143.47;58.55
35121;BME280;21297;52.008;4.576;2023-05-25T12:02:51;49895.78;;;-143.47;58.06
35121;BME280;21297;52.008;4.576;2023-05-25T12:05:37;49828.91;;;-143.47;57.84
35121;BME280;21297;52.008;4.576;2023-05-25T12:08:34;49903.66;;;-143.47;57.39
35121;BME280;21297;52.008;4.576;2023-05-25T12:11:35;49909.56;;;-143.47;56.91
35121;BME280;21297;52.008;4.576;2023-05-25T12:14:29;49811.22;;;-143.47;57.16
35121;BME280;21297;52.008;4.576;2023-05-25T12:17:17;49885.94;;;-143.47;57.71
35121;BME280;21297;52.008;4.576;2023-05-25T12:20:03;49823.00;;;-143.47;57.50
35121;BME280;21297;52.008;4.576;2023-05-25T12:22:51;49878.09;;;-143.47;56.79
35121;BME280;21297;52.008;4.576;2023-05-25T12:25:37;49876.13;;;-143.47;55.75
35121;BME280;21297;52.008;4.576;2023-05-25T12:28:23;49897.75;;;-143.47;54.34
35121;BME280;21297;52.008;4.576;2023-05-25T12:31:19;49866.28;;;-143.47;54.32
35121;BME280;21297;52.008;4.576;2023-05-25T12:34:10;49917.44;;;-143.47;53.91
35121;BME280;21297;52.008;4.576;2023-05-25T12:36:56;49927.25;;;-143.47;53.48
35121;BME280;21297;52.008;4.576;2023-05-25T12:39:42;49960.69;;;-143.47;53.48
35121;BME280;21297;52.008;4.576;2023-05-25T12:42:27;49958.72;;;-143.47;52.17
35121;BME280;21297;52.008;4.576;2023-05-25T12:44:56;50047.25;;;-143.47;52.00
35121;BME280;21297;52.008;4.576;2023-05-25T12:47:23;50108.22;;;-143.47;51.45
35121;BME280;21297;52.008;4.576;2023-05-25T12:49:50;50096.41;;;-143.47;50.85
35121;BME280;21297;52.008;4.576;2023-05-25T12:52:35;49988.22;;;-143.47;50.99
35121;BME280;21297;52.008;4.576;2023-05-25T12:55:27;50061.00;;;-143.47;52.14
35121;BME280;21297;52.008;4.576;2023-05-25T12:58:26;50086.59;;;-143.47;51.31
35121;BME280;21297;52.008;4.576;2023-05-25T13:01:12;50043.31;;;-143.47;53.28
35121;BME280;21297;52.008;4.576;2023-05-25T13:03:57;50007.91;;;-143.47;53.22
35121;BME280;21297;52.008;4.576;2023-05-25T13:06:43;49974.47;;;-143.47;54.25
35121;BME280;21297;52.008;4.576;2023-05-25T13:09:29;49960.69;;;-143.47;54.97
35121;BME280;21297;52.008;4.576;2023-05-25T13:12:15;50086.59;;;-143.47;54.73
35121;BME280;21297;52.008;4.576;2023-05-25T13:15:01;50003.97;;;-143.47;54.36
35121;BME280;21297;52.008;4.576;2023-05-25T13:17:47;50007.91;;;-143.47;55.27
35121;BME280;21297;52.008;4.576;2023-05-25T13:20:34;49939.06;;;-143.47;55.39
35121;BME280;21297;52.008;4.576;2023-05-25T13:23:21;49992.16;;;-143.47;54.26
35121;BME280;21297;52.008;4.576;2023-05-25T13:26:06;49976.44;;;-143.47;54.00
35121;BME280;21297;52.008;4.576;2023-05-25T13:28:52;49860.38;;;-143.47;54.70
35121;BME280;21297;52.008;4.576;2023-05-25T13:31:38;49941.03;;;-143.47;54.57
35121;BME280;21297;52.008;4.576;2023-05-25T13:34:23;49974.47;;;-143.47;53.19
35121;BME280;21297;52.008;4.576;2023-05-25T13:37:09;50070.84;;;-143.47;52.51
35121;BME280;21297;52.008;4.576;2023-05-25T13:39:55;50135.75;;;-143.47;51.02
35121;BME280;21297;52.008;4.576;2023-05-25T13:42:42;50133.78;;;-143.47;50.60
35121;BME280;21297;52.008;4.576;2023-05-25T13:45:28;50066.91;;;-143.47;49.87
35121;BME280;21297;52.008;4.576;2023-05-25T13:48:14;50094.44;;;-143.47;50.76
35121;BME280;21297;52.008;4.576;2023-05-25T13:50:59;50116.09;;;-143.47;49.84
35121;BME280;21297;52.008;4.576;2023-05-25T13:53:47;50120.03;;;-143.47;49.33
35121;BME280;21297;52.008;4.576;2023-05-25T13:56:33;50061.00;;;-143.47;50.25
35121;BME280;21297;52.008;4.576;2023-05-25T13:59:19;50098.38;;;-143.47;50.63
35121;BME280;21297;52.008;4.576;2023-05-25T14:02:04;50035.44;;;-143.47;50.45
35121;BME280;21297;52.008;4.576;2023-05-25T14:04:51;50031.50;;;-143.47;52.46
35121;BME280;21297;52.008;4.576;2023-05-25T14:07:37;49988.22;;;-143.47;53.34
35121;BME280;21297;52.008;4.576;2023-05-25T14:10:23;49972.50;;;-143.47;52.32
35121;BME280;21297;52.008;4.576;2023-05-25T14:13:10;50027.56;;;-143.47;51.31